Sault Ste. Marie International Airport

Airport
ICAO code: 
CYAM
IATA Code: 
YAM
Summary
ICAO Region: 
NAM
Territory: 
Location: 
Sault Ste. Marie, Ontario,
Serving: 
Sault Ste. Marie
Elevation: 
630 ft
Coordinates: 
Aerial View: 
46° 29' 6" N, 84° 30' 33.998" W
Airport BS: 
Bird Strike
Airport CFIT: 
Altimeter Temperature Error Correction
Airport GND: 
Aircraft Ground De/Anti Icing
Metar
Observation
CYAM 291400Z 12003KT 15SM -SHSN FEW008 FEW018 SCT028 BKN043 M02/M02 A2997 RMK CF1CU2CU3CU2 CF TR SLP160
Station
Sault Ste Marie, Ont.
Date/Time
2021-11-29 14:00:00
Wind direction
120°
Wind speed
03 kts
Lowest cloud amount
few clouds
Temperature
-2°C
Dew point
-2°C
Humidity
100%
Weather condition
light showers snow

Description

Regional airport located 8 miles west of Sault Ste. Marie, Ontario, Canada.

Climatology

Humid Continental climate (Köppen climate classification Dfb) - Variable weather patterns and a large seasonal temperature variance. Summers are often warm and humid with frequent thunderstorms and winters can be very cold with frequent snowfall and persistent snow cover.

Runways

Designator Length Width Surface Rops
4/22 1829 61 ASP Yes/Yes
12/30 1829 61 ASP Yes/Yes
Airport map: 
Aerial View: 

SKYbrary Partners:

Safety knowledge contributed by: